createdAt,value
2022-11-21T00:02:21.846Z,7.90
2022-11-21T00:04:53.478Z,6.90
2022-11-21T00:07:24.294Z,5.93
2022-11-21T00:09:55.392Z,5.60
2022-11-21T00:12:28.467Z,5.82
2022-11-21T00:15:02.120Z,5.53
2022-11-21T00:17:33.157Z,5.03
2022-11-21T00:20:04.114Z,4.85
2022-11-21T00:22:35.114Z,5.05
2022-11-21T00:25:05.980Z,5.13
2022-11-21T00:27:36.765Z,4.50
2022-11-21T00:30:12.783Z,4.15
2022-11-21T00:32:44.455Z,4.33
2022-11-21T00:35:15.523Z,4.38
2022-11-21T00:37:48.825Z,4.50
2022-11-21T00:40:20.235Z,4.65
2022-11-21T00:42:51.046Z,4.75
2022-11-21T00:45:24.860Z,4.53
2022-11-21T00:47:55.843Z,4.00
2022-11-21T00:50:26.562Z,4.68
2022-11-21T00:52:59.215Z,4.57
2022-11-21T00:55:30.502Z,4.63
2022-11-21T00:58:01.553Z,4.43
2022-11-21T01:00:35.139Z,4.55
2022-11-21T01:03:05.930Z,4.95
2022-11-21T01:05:36.825Z,5.18
2022-11-21T01:08:08.145Z,4.63
2022-11-21T01:10:39.213Z,4.78
2022-11-21T01:13:10.080Z,4.82
2022-11-21T01:15:44.150Z,4.25
2022-11-21T01:18:14.929Z,4.88
2022-11-21T01:20:45.702Z,3.70
2022-11-21T01:23:16.477Z,3.63
2022-11-21T01:25:47.307Z,5.22
2022-11-21T01:28:18.303Z,3.95
2022-11-21T01:30:51.758Z,3.80
2022-11-21T01:33:23.259Z,2.80
2022-11-21T01:35:54.569Z,3.60
2022-11-21T01:38:25.358Z,4.35
2022-11-21T01:40:56.168Z,3.22
2022-11-21T01:43:26.946Z,3.55
2022-11-21T01:46:02.126Z,4.70
2022-11-21T01:48:39.867Z,4.00
2022-11-21T01:51:18.246Z,4.28
2022-11-21T01:53:54.323Z,3.78
2022-11-21T01:56:26.383Z,3.93
2022-11-21T01:59:02.555Z,3.90
2022-11-21T02:01:39.227Z,3.83
2022-11-21T02:04:11.730Z,3.50
2022-11-21T02:06:43.498Z,3.58
2022-11-21T02:09:14.891Z,4.72
2022-11-21T02:11:51.011Z,3.75
2022-11-21T02:14:22.173Z,3.95
2022-11-21T02:17:00.304Z,3.78
2022-11-21T02:19:38.624Z,3.38
2022-11-21T02:22:16.283Z,3.60
2022-11-21T02:24:50.045Z,3.85
2022-11-21T02:27:23.424Z,4.03
2022-11-21T02:29:54.440Z,3.67
2022-11-21T02:32:26.600Z,3.70
2022-11-21T02:34:57.360Z,4.13
2022-11-21T02:37:28.343Z,3.58
2022-11-21T02:40:01.953Z,3.42
2022-11-21T02:42:39.672Z,4.13
2022-11-21T02:45:17.500Z,3.28
2022-11-21T02:47:50.700Z,4.47
2022-11-21T02:50:25.106Z,4.13
2022-11-21T02:52:56.260Z,3.47
2022-11-21T02:55:27.936Z,3.72
2022-11-21T02:58:05.104Z,4.05
2022-11-21T03:00:37.221Z,3.47
2022-11-21T03:03:08.897Z,4.22
2022-11-21T03:05:40.349Z,3.35
2022-11-21T03:08:12.023Z,4.00
2022-11-21T03:10:42.830Z,3.58
2022-11-21T03:13:16.392Z,3.83
2022-11-21T03:15:47.956Z,3.97
2022-11-21T03:18:19.092Z,3.70
2022-11-21T03:20:49.962Z,3.40
2022-11-21T03:23:21.243Z,3.88
2022-11-21T03:25:52.025Z,4.07
2022-11-21T03:28:25.309Z,4.72
2022-11-21T03:30:56.021Z,4.30
2022-11-21T03:33:27.238Z,3.75
2022-11-21T03:35:58.022Z,4.25
2022-11-21T03:38:28.827Z,3.60
2022-11-21T03:40:59.843Z,4.88
2022-11-21T03:43:33.202Z,3.85
2022-11-21T03:46:03.932Z,2.78
2022-11-21T03:48:35.054Z,3.25
2022-11-21T03:51:06.300Z,2.97
2022-11-21T03:53:37.141Z,4.60
2022-11-21T03:56:08.858Z,3.78
2022-11-21T03:58:42.265Z,3.92
2022-11-21T04:01:13.863Z,3.63
2022-11-21T04:03:44.966Z,4.15
2022-11-21T04:06:18.079Z,3.50
2022-11-21T04:08:49.619Z,3.38
2022-11-21T04:11:22.246Z,4.03
2022-11-21T04:13:56.217Z,3.75
2022-11-21T04:16:27.509Z,3.05
2022-11-21T04:18:58.376Z,4.60
2022-11-21T04:21:29.520Z,3.45
2022-11-21T04:24:00.273Z,3.42
2022-11-21T04:26:31.019Z,4.00
2022-11-21T04:29:04.400Z,3.60
2022-11-21T04:31:35.311Z,3.67
2022-11-21T04:34:06.531Z,3.10
2022-11-21T04:36:37.753Z,3.10
2022-11-21T04:39:08.592Z,3.90
2022-11-21T04:41:39.324Z,4.13
2022-11-21T04:44:12.743Z,3.83
2022-11-21T04:46:44.046Z,4.50
2022-11-21T04:49:14.934Z,3.47
2022-11-21T04:51:45.844Z,4.22
2022-11-21T04:54:17.212Z,3.58
2022-11-21T04:56:47.971Z,3.63
2022-11-21T04:59:21.747Z,3.17
2022-11-21T05:01:52.601Z,3.25
2022-11-21T05:04:23.351Z,2.83
2022-11-21T05:06:54.114Z,3.67
2022-11-21T05:09:24.947Z,3.28
2022-11-21T05:12:07.984Z,3.70
2022-11-21T05:14:41.808Z,3.55
2022-11-21T05:17:12.700Z,3.05
2022-11-21T05:19:44.004Z,3.47
2022-11-21T05:22:14.970Z,3.13
2022-11-21T05:24:45.807Z,3.22
2022-11-21T05:27:17.082Z,3.03
2022-11-21T05:29:50.866Z,3.25
2022-11-21T05:32:21.601Z,3.38
2022-11-21T05:34:52.353Z,2.90
2022-11-21T05:37:23.465Z,3.08
2022-11-21T05:39:54.653Z,2.90
2022-11-21T05:42:45.398Z,3.50
2022-11-21T05:45:16.394Z,2.72
2022-11-21T05:47:47.263Z,2.45
2022-11-21T05:50:18.568Z,3.28
2022-11-21T05:52:49.850Z,2.63
2022-11-21T05:55:20.940Z,2.78
2022-11-21T05:57:52.166Z,2.45
2022-11-21T06:00:26.195Z,2.80
2022-11-21T06:03:09.464Z,3.03
2022-11-21T06:05:40.248Z,3.33
2022-11-21T06:08:11.255Z,2.50
2022-11-21T06:10:42.095Z,2.75
2022-11-21T06:13:22.414Z,2.50
2022-11-21T06:15:58.092Z,2.53
2022-11-21T06:18:30.195Z,3.47
2022-11-21T06:21:05.048Z,3.88
2022-11-21T06:23:36.422Z,3.13
2022-11-21T06:26:09.139Z,3.10
2022-11-21T06:28:41.478Z,2.40
2022-11-21T06:31:16.386Z,2.53
2022-11-21T06:33:48.434Z,3.13
2022-11-21T06:36:20.623Z,3.33
2022-11-21T06:38:52.179Z,4.47
2022-11-21T06:41:25.102Z,3.35
2022-11-21T06:43:56.553Z,3.38
2022-11-21T06:46:30.962Z,3.63
2022-11-21T06:49:02.063Z,2.72
2022-11-21T06:51:33.323Z,4.20
2022-11-21T06:54:04.547Z,3.67
2022-11-21T06:56:35.944Z,2.88
2022-11-21T06:59:07.168Z,2.72
2022-11-21T07:01:41.387Z,3.75
2022-11-21T07:04:12.844Z,2.90
2022-11-21T07:06:43.955Z,2.60
2022-11-21T07:09:32.733Z,3.20
2022-11-21T07:12:17.219Z,3.05
2022-11-21T07:14:48.741Z,3.45
2022-11-21T07:17:22.802Z,2.60
2022-11-21T07:19:53.730Z,3.22
2022-11-21T07:22:29.644Z,3.00
2022-11-21T07:25:01.807Z,2.67
2022-11-21T07:27:32.610Z,3.03
2022-11-21T07:30:03.330Z,4.63
2022-11-21T07:32:36.821Z,4.10
2022-11-21T07:35:08.628Z,9.30
2022-11-21T07:37:43.067Z,3.25
2022-11-21T07:40:15.004Z,3.15
2022-11-21T07:42:45.900Z,4.00
2022-11-21T07:45:17.853Z,3.00
2022-11-21T07:47:51.676Z,3.08
2022-11-21T07:50:23.016Z,2.70
2022-11-21T07:52:54.073Z,2.33
2022-11-21T07:55:25.236Z,2.90
2022-11-21T07:58:03.209Z,2.13
2022-11-21T08:00:36.492Z,2.25
2022-11-21T08:03:12.523Z,3.30
2022-11-21T08:05:45.454Z,2.80
2022-11-21T08:08:17.940Z,3.03
2022-11-21T08:10:51.724Z,3.25
2022-11-21T08:13:26.939Z,4.00
2022-11-21T08:15:58.484Z,3.05
2022-11-21T08:18:32.283Z,2.88
2022-11-21T08:21:06.263Z,3.55
2022-11-21T08:23:37.830Z,3.08
2022-11-21T08:26:11.799Z,3.05
2022-11-21T08:28:43.625Z,2.67
2022-11-21T08:31:15.110Z,3.00
2022-11-21T08:33:49.401Z,2.72
2022-11-21T08:36:21.109Z,2.65
2022-11-21T08:38:51.950Z,3.88
2022-11-21T08:41:35.285Z,3.15
2022-11-21T08:44:09.863Z,3.67
2022-11-21T08:46:44.140Z,2.88
2022-11-21T08:49:19.393Z,3.05
2022-11-21T08:51:52.061Z,2.73
2022-11-21T08:54:25.704Z,2.78
2022-11-21T08:56:57.481Z,2.78
2022-11-21T08:59:28.564Z,2.75
2022-11-21T09:01:59.800Z,4.07
2022-11-21T09:04:33.832Z,2.45
2022-11-21T09:07:05.195Z,2.50
2022-11-21T09:09:37.759Z,2.45
2022-11-21T09:12:09.799Z,3.03
2022-11-21T09:14:52.939Z,2.53
2022-11-21T09:17:36.022Z,2.35
2022-11-21T09:20:11.642Z,2.38
2022-11-21T09:22:42.925Z,2.00
2022-11-21T09:25:14.103Z,2.50
2022-11-21T09:27:44.830Z,2.45
2022-11-21T09:30:16.328Z,1.95
2022-11-21T09:32:47.702Z,2.72
2022-11-21T09:35:21.738Z,2.30
2022-11-21T09:37:53.004Z,2.20
2022-11-21T09:40:24.161Z,1.80
2022-11-21T09:43:04.045Z,1.42
2022-11-21T09:45:37.852Z,2.13
2022-11-21T09:48:14.720Z,1.98
2022-11-21T09:50:54.990Z,1.77
2022-11-21T09:53:29.326Z,1.98
2022-11-21T09:56:02.833Z,1.33
2022-11-21T09:58:39.265Z,1.13
2022-11-21T10:01:13.989Z,1.75
2022-11-21T10:03:47.564Z,1.23
2022-11-21T10:06:25.929Z,1.38
2022-11-21T10:09:05.801Z,1.30
2022-11-21T10:11:58.770Z,2.03
2022-11-21T10:14:46.466Z,1.42
2022-11-21T10:17:25.906Z,1.48
2022-11-21T10:20:20.767Z,1.17
2022-11-21T10:23:19.583Z,3.58
2022-11-21T10:25:58.731Z,2.38
2022-11-21T10:28:41.927Z,1.75
2022-11-21T10:31:14.885Z,1.38
2022-11-21T10:33:46.358Z,1.02
2022-11-21T10:36:26.611Z,1.30
2022-11-21T10:39:06.364Z,1.02
2022-11-21T10:41:45.442Z,1.00
2022-11-21T10:44:39.593Z,1.45
2022-11-21T10:47:27.644Z,0.98
2022-11-21T10:50:05.710Z,0.85
2022-11-21T10:52:40.172Z,0.70
2022-11-21T10:55:20.105Z,0.73
2022-11-21T10:57:52.656Z,1.40
2022-11-21T11:00:27.612Z,1.30
2022-11-21T11:03:19.894Z,1.15
2022-11-21T11:06:00.767Z,0.73
2022-11-21T11:08:32.177Z,1.08
2022-11-21T11:11:15.205Z,1.20
2022-11-21T11:13:59.698Z,0.80
2022-11-21T11:16:36.022Z,0.68
2022-11-21T11:19:31.628Z,0.95
2022-11-21T11:22:05.569Z,0.85
2022-11-21T11:24:36.730Z,1.60
2022-11-21T11:27:12.257Z,1.02
2022-11-21T11:29:54.705Z,1.58
2022-11-21T11:32:26.216Z,2.15
2022-11-21T11:35:03.403Z,2.50
2022-11-21T11:37:41.141Z,2.42
2022-11-21T11:40:24.940Z,2.03
2022-11-21T11:43:28.433Z,3.65
2022-11-21T11:46:24.164Z,2.88
2022-11-21T11:49:21.045Z,3.10
2022-11-21T11:51:57.577Z,2.63
2022-11-21T11:54:33.340Z,2.70
2022-11-21T11:57:06.838Z,3.05
2022-11-21T11:59:44.742Z,2.67
2022-11-21T12:02:22.030Z,3.22
2022-11-21T12:04:57.511Z,2.80
2022-11-21T12:08:38.877Z,2.45
2022-11-21T12:10:31.987Z,3.92
2022-11-21T12:13:13.937Z,2.40
2022-11-21T12:15:58.475Z,2.88
2022-11-21T12:18:39.644Z,3.92
2022-11-21T12:21:16.052Z,2.10
2022-11-21T12:23:50.730Z,3.70
2022-11-21T12:26:43.577Z,3.03
2022-11-21T12:29:26.467Z,2.60
2022-11-21T12:32:19.552Z,2.65
2022-11-21T12:35:08.692Z,4.25
2022-11-21T12:37:47.954Z,2.85
2022-11-21T12:40:41.177Z,2.92
2022-11-21T12:43:29.050Z,3.03
2022-11-21T12:46:09.222Z,3.28
2022-11-21T12:49:09.831Z,2.97
2022-11-21T12:52:19.980Z,2.55
2022-11-21T12:55:01.052Z,2.55
2022-11-21T12:57:42.525Z,4.15
2022-11-21T13:00:20.310Z,5.05
2022-11-21T13:03:27.028Z,3.17
2022-11-21T13:06:01.753Z,3.17
2022-11-21T13:08:35.313Z,4.30
2022-11-21T13:11:25.496Z,5.18
2022-11-21T13:14:04.604Z,3.08
2022-11-21T13:16:45.129Z,3.83
2022-11-21T13:19:25.904Z,3.00
2022-11-21T13:21:59.463Z,4.25
2022-11-21T13:24:59.037Z,3.13
2022-11-21T13:27:38.890Z,6.45
2022-11-21T13:30:28.903Z,2.45
2022-11-21T13:33:00.142Z,3.47
2022-11-21T13:36:10.426Z,2.30
2022-11-21T13:39:14.197Z,1.52
2022-11-21T13:42:20.687Z,1.85
2022-11-21T13:44:52.696Z,1.10
2022-11-21T13:48:09.188Z,1.63
2022-11-21T13:51:10.695Z,1.15
2022-11-21T13:54:07.884Z,1.98
2022-11-21T13:56:47.158Z,1.87
2022-11-21T13:59:39.120Z,1.38
2022-11-21T14:02:34.457Z,2.03
2022-11-21T14:05:33.056Z,1.13
2022-11-21T14:08:17.927Z,1.88
2022-11-21T14:10:50.298Z,1.80
2022-11-21T14:13:25.866Z,4.13
2022-11-21T14:16:16.802Z,2.35
2022-11-21T14:18:49.615Z,1.98
2022-11-21T14:21:27.398Z,2.55
2022-11-21T14:24:05.279Z,1.77
2022-11-21T14:26:44.595Z,2.85
2022-11-21T14:29:22.920Z,2.38
2022-11-21T14:31:56.885Z,1.85
2022-11-21T14:34:29.115Z,1.85
2022-11-21T14:37:03.585Z,2.53
2022-11-21T14:39:41.941Z,2.55
2022-11-21T14:42:18.154Z,1.80
2022-11-21T14:44:49.020Z,2.08
2022-11-21T14:47:26.735Z,2.25
2022-11-21T14:50:07.258Z,1.95
2022-11-21T14:52:38.626Z,2.65
2022-11-21T14:55:32.459Z,1.58
2022-11-21T14:58:05.805Z,1.40
2022-11-21T15:03:29.966Z,1.45
2022-11-21T15:06:07.977Z,1.40
2022-11-21T15:09:45.662Z,1.27
2022-11-21T15:11:39.902Z,1.20
2022-11-21T15:14:20.689Z,1.45
2022-11-21T15:16:55.500Z,1.17
2022-11-21T15:19:32.757Z,1.13
2022-11-21T15:22:06.576Z,1.20
2022-11-21T15:24:43.306Z,0.98
2022-11-21T15:30:27.986Z,1.15
2022-11-21T15:33:11.042Z,0.90
2022-11-21T15:35:55.720Z,1.08
2022-11-21T15:38:34.710Z,8.23
2022-11-21T15:41:09.529Z,2.10
2022-11-21T15:43:43.511Z,1.10
2022-11-21T15:46:22.376Z,1.65
2022-11-21T15:48:54.659Z,1.80
2022-11-21T15:51:59.600Z,1.30
2022-11-21T15:54:24.205Z,1.05
2022-11-21T15:56:55.316Z,1.35
2022-11-21T15:59:26.859Z,1.52
2022-11-21T16:01:57.900Z,2.17
2022-11-21T16:04:28.744Z,1.90
2022-11-21T16:07:02.932Z,1.70
2022-11-21T16:09:34.314Z,1.42
2022-11-21T16:12:05.415Z,1.83
2022-11-21T16:14:36.677Z,2.30
2022-11-21T16:17:07.855Z,5.30
2022-11-21T16:19:38.752Z,1.83
2022-11-21T16:22:13.258Z,5.07
2022-11-21T16:24:44.204Z,1.92
2022-11-21T16:27:15.651Z,3.42
2022-11-21T16:29:48.711Z,3.38
2022-11-21T16:32:20.558Z,5.07
2022-11-21T16:34:52.240Z,3.42
2022-11-21T16:37:26.453Z,2.88
2022-11-21T16:39:57.739Z,6.00
2022-11-21T16:42:28.986Z,3.88
2022-11-21T16:45:00.151Z,4.80
2022-11-21T16:47:31.587Z,3.95
2022-11-21T16:50:03.066Z,4.82
2022-11-21T16:52:39.123Z,3.53
2022-11-21T16:55:10.992Z,6.57
2022-11-21T16:57:43.473Z,6.47
2022-11-21T17:00:15.768Z,5.85
2022-11-21T17:02:47.123Z,6.28
2022-11-21T17:05:18.584Z,4.85
2022-11-21T17:07:52.502Z,4.22
2022-11-21T17:10:23.700Z,6.05
2022-11-21T17:12:54.605Z,5.32
2022-11-21T17:15:25.718Z,4.82
2022-11-21T17:18:01.649Z,3.63
2022-11-21T17:20:32.890Z,1.83
2022-11-21T17:23:06.658Z,1.20
2022-11-21T17:25:37.573Z,1.50
2022-11-21T17:28:08.885Z,2.22
2022-11-21T17:30:44.315Z,4.28
2022-11-21T17:33:15.390Z,3.60
2022-11-21T17:35:46.640Z,2.97
2022-11-21T17:38:21.038Z,4.28
2022-11-21T17:41:01.675Z,4.25
2022-11-21T17:43:33.327Z,3.95
2022-11-21T17:46:09.571Z,3.75
2022-11-21T17:51:14.691Z,2.92
2022-11-21T17:53:52.930Z,3.50
2022-11-21T17:56:26.029Z,2.65
2022-11-21T17:58:57.070Z,2.85
2022-11-21T18:01:28.457Z,3.10
2022-11-21T18:04:01.541Z,3.67
2022-11-21T18:06:37.742Z,3.40
2022-11-21T18:09:13.727Z,2.95
2022-11-21T18:11:46.290Z,2.92
2022-11-21T18:14:18.678Z,2.75
2022-11-21T18:16:53.643Z,3.20
2022-11-21T18:19:25.380Z,3.50
2022-11-21T18:21:56.503Z,2.67
2022-11-21T18:24:32.091Z,2.17
2022-11-21T18:27:03.510Z,2.53
2022-11-21T18:29:36.560Z,2.60
2022-11-21T18:32:09.516Z,2.65
2022-11-21T18:34:40.920Z,3.50
2022-11-21T18:37:12.196Z,2.45
2022-11-21T18:39:45.971Z,2.10
2022-11-21T18:42:17.059Z,2.20
2022-11-21T18:44:48.211Z,1.77
2022-11-21T18:47:20.914Z,3.10
2022-11-21T18:49:52.459Z,2.20
2022-11-21T18:52:24.164Z,1.95
2022-11-21T18:54:57.739Z,3.90
2022-11-21T18:57:28.624Z,3.08
2022-11-21T19:00:00.741Z,3.40
2022-11-21T19:02:31.619Z,3.22
2022-11-21T19:05:02.841Z,2.53
2022-11-21T19:07:34.106Z,2.75
2022-11-21T19:10:35.517Z,3.17
2022-11-21T19:12:59.401Z,2.15
2022-11-21T19:15:30.531Z,2.13
2022-11-21T19:18:01.729Z,2.30
2022-11-21T19:20:33.083Z,2.13
2022-11-21T19:23:05.327Z,2.85
2022-11-21T19:25:39.424Z,1.70
2022-11-21T19:28:10.756Z,1.75
2022-11-21T19:30:41.645Z,2.88
2022-11-21T19:33:14.397Z,1.75
2022-11-21T19:35:45.785Z,2.47
2022-11-21T19:38:16.762Z,2.15
2022-11-21T19:41:02.584Z,1.95
2022-11-21T19:43:34.018Z,2.00
2022-11-21T19:46:07.487Z,2.55
2022-11-21T19:48:38.671Z,1.42
2022-11-21T19:51:10.603Z,2.15
2022-11-21T19:53:42.421Z,2.63
2022-11-21T19:56:18.216Z,2.38
2022-11-21T19:58:50.228Z,2.55
2022-11-21T20:01:22.966Z,2.70
2022-11-21T20:03:56.884Z,3.20
2022-11-21T20:06:29.299Z,2.92
2022-11-21T20:09:02.430Z,1.60
2022-11-21T20:11:37.407Z,3.17
2022-11-21T20:14:08.617Z,2.45
2022-11-21T20:16:41.451Z,2.50
2022-11-21T20:19:15.062Z,2.00
2022-11-21T20:21:47.104Z,2.15
2022-11-21T20:24:18.789Z,4.18
2022-11-21T20:26:53.786Z,2.78
2022-11-21T20:29:26.567Z,3.35
2022-11-21T20:31:59.459Z,3.63
2022-11-21T20:34:30.827Z,2.75
2022-11-21T20:37:02.301Z,3.15
2022-11-21T20:39:33.502Z,3.22
2022-11-21T20:42:07.347Z,3.70
2022-11-21T20:45:41.660Z,2.85
2022-11-21T20:47:29.560Z,2.55
2022-11-21T20:50:00.390Z,2.10
2022-11-21T20:53:49.693Z,2.28
2022-11-21T20:55:22.647Z,2.50
2022-11-21T20:57:57.490Z,2.53
2022-11-21T21:00:28.418Z,2.15
2022-11-21T21:02:59.590Z,2.95
2022-11-21T21:05:30.902Z,2.10
2022-11-21T21:08:02.100Z,2.22
2022-11-21T21:10:51.334Z,2.13
2022-11-21T21:13:26.381Z,2.97
2022-11-21T21:15:57.560Z,2.28
2022-11-21T21:18:29.153Z,2.20
2022-11-21T21:21:16.679Z,2.10
2022-11-21T21:23:51.104Z,2.55
2022-11-21T21:26:25.409Z,3.10
2022-11-21T21:29:00.781Z,2.42
2022-11-21T21:31:33.031Z,2.70
2022-11-21T21:34:04.279Z,2.35
2022-11-21T21:36:35.448Z,2.80
2022-11-21T21:39:06.966Z,2.17
2022-11-21T21:41:40.310Z,2.33
2022-11-21T21:44:14.348Z,2.80
2022-11-21T21:46:45.327Z,2.40
2022-11-21T21:49:16.650Z,3.22
2022-11-21T21:51:47.907Z,2.20
2022-11-21T21:54:20.578Z,2.50
2022-11-21T21:56:52.963Z,2.55
2022-11-21T21:59:26.607Z,2.95
2022-11-21T22:01:57.591Z,2.80
2022-11-21T22:04:28.798Z,2.50
2022-11-21T22:07:00.789Z,3.08
2022-11-21T22:09:33.508Z,2.42
2022-11-21T22:12:04.309Z,2.55
2022-11-21T22:14:38.004Z,2.67
2022-11-21T22:17:09.124Z,2.20
2022-11-21T22:19:40.379Z,2.67
2022-11-21T22:22:11.120Z,2.47
2022-11-21T22:24:42.040Z,2.22
2022-11-21T22:27:13.006Z,1.85
2022-11-21T22:29:46.521Z,1.55
2022-11-21T22:32:19.907Z,1.30
2022-11-21T22:34:51.316Z,1.50
2022-11-21T22:37:22.289Z,1.38
2022-11-21T22:39:53.365Z,1.00
2022-11-21T22:42:24.046Z,2.03
2022-11-21T22:44:57.504Z,2.28
2022-11-21T22:47:28.372Z,2.42
2022-11-21T22:49:59.185Z,1.30
2022-11-21T22:52:30.180Z,1.80
2022-11-21T22:55:01.131Z,1.38
2022-11-21T22:57:32.328Z,1.63
2022-11-21T23:00:06.486Z,1.63
2022-11-21T23:02:37.238Z,2.30
2022-11-21T23:05:08.706Z,1.65
2022-11-21T23:07:39.512Z,1.20
2022-11-21T23:10:13.797Z,1.02
2022-11-21T23:12:44.656Z,1.38
2022-11-21T23:15:18.452Z,1.27
2022-11-21T23:17:52.526Z,1.33
2022-11-21T23:20:23.906Z,1.23
2022-11-21T23:22:54.899Z,1.45
2022-11-21T23:25:25.787Z,0.90
2022-11-21T23:27:56.600Z,1.15
2022-11-21T23:30:30.026Z,1.50
2022-11-21T23:33:00.826Z,1.08
2022-11-21T23:35:32.070Z,2.28
2022-11-21T23:38:02.853Z,1.35
2022-11-21T23:40:34.070Z,1.30
2022-11-21T23:43:04.961Z,1.23
2022-11-21T23:45:38.807Z,1.98
2022-11-21T23:48:10.383Z,1.70
2022-11-21T23:50:41.221Z,1.42
2022-11-21T23:53:12.542Z,1.23
2022-11-21T23:55:43.954Z,1.50
2022-11-21T23:58:15.580Z,1.10
